sensor_id;sensor_type;location;lat;lon;timestamp;P1;durP1;ratioP1;P2;durP2;ratioP2
69047;SDS011;56119;50.118;8.642;2023-09-08T00:01:25;8.02;;;6.55;;
69047;SDS011;56119;50.118;8.642;2023-09-08T00:03:50;8.23;;;7.32;;
69047;SDS011;56119;50.118;8.642;2023-09-08T00:06:16;9.07;;;6.80;;
69047;SDS011;56119;50.118;8.642;2023-09-08T00:08:42;8.27;;;6.38;;
69047;SDS011;56119;50.118;8.642;2023-09-08T00:11:08;9.05;;;6.00;;
69047;SDS011;56119;50.118;8.642;2023-09-08T00:13:34;8.65;;;6.40;;
69047;SDS011;56119;50.118;8.642;2023-09-08T00:16:00;10.57;;;6.55;;
69047;SDS011;56119;50.118;8.642;2023-09-08T00:18:26;7.20;;;5.97;;
69047;SDS011;56119;50.118;8.642;2023-09-08T00:20:52;8.82;;;6.50;;
69047;SDS011;56119;50.118;8.642;2023-09-08T00:23:18;8.82;;;6.47;;
69047;SDS011;56119;50.118;8.642;2023-09-08T00:25:44;11.05;;;6.63;;
69047;SDS011;56119;50.118;8.642;2023-09-08T00:28:10;9.77;;;6.68;;
69047;SDS011;56119;50.118;8.642;2023-09-08T00:30:36;9.73;;;6.22;;
69047;SDS011;56119;50.118;8.642;2023-09-08T00:33:02;8.90;;;6.72;;
69047;SDS011;56119;50.118;8.642;2023-09-08T00:35:28;8.88;;;6.55;;
69047;SDS011;56119;50.118;8.642;2023-09-08T00:37:54;8.73;;;6.30;;
69047;SDS011;56119;50.118;8.642;2023-09-08T00:40:20;8.52;;;7.28;;
69047;SDS011;56119;50.118;8.642;2023-09-08T00:42:46;10.23;;;6.68;;
69047;SDS011;56119;50.118;8.642;2023-09-08T00:45:13;9.60;;;6.53;;
69047;SDS011;56119;50.118;8.642;2023-09-08T00:47:38;11.68;;;7.53;;
69047;SDS011;56119;50.118;8.642;2023-09-08T00:50:05;13.90;;;6.40;;
69047;SDS011;56119;50.118;8.642;2023-09-08T00:52:31;10.82;;;6.50;;
69047;SDS011;56119;50.118;8.642;2023-09-08T00:54:58;9.07;;;6.18;;
69047;SDS011;56119;50.118;8.642;2023-09-08T00:57:25;8.90;;;6.82;;
69047;SDS011;56119;50.118;8.642;2023-09-08T00:59:51;9.15;;;6.25;;
69047;SDS011;56119;50.118;8.642;2023-09-08T01:02:17;6.90;;;5.90;;
69047;SDS011;56119;50.118;8.642;2023-09-08T01:04:43;8.85;;;6.10;;
69047;SDS011;56119;50.118;8.642;2023-09-08T01:07:10;9.63;;;6.55;;
69047;SDS011;56119;50.118;8.642;2023-09-08T01:09:36;7.72;;;6.00;;
69047;SDS011;56119;50.118;8.642;2023-09-08T01:12:03;7.32;;;6.05;;
69047;SDS011;56119;50.118;8.642;2023-09-08T01:14:29;8.32;;;6.65;;
69047;SDS011;56119;50.118;8.642;2023-09-08T01:16:56;8.07;;;6.95;;
69047;SDS011;56119;50.118;8.642;2023-09-08T01:19:21;9.23;;;7.05;;
69047;SDS011;56119;50.118;8.642;2023-09-08T01:24:37;9.52;;;7.15;;
69047;SDS011;56119;50.118;8.642;2023-09-08T01:27:05;7.35;;;6.57;;
69047;SDS011;56119;50.118;8.642;2023-09-08T01:29:32;8.32;;;6.63;;
69047;SDS011;56119;50.118;8.642;2023-09-08T01:31:58;8.93;;;6.90;;
69047;SDS011;56119;50.118;8.642;2023-09-08T01:34:25;10.43;;;6.95;;
69047;SDS011;56119;50.118;8.642;2023-09-08T01:36:51;9.38;;;7.25;;
69047;SDS011;56119;50.118;8.642;2023-09-08T01:39:18;9.60;;;7.28;;
69047;SDS011;56119;50.118;8.642;2023-09-08T01:41:44;10.82;;;6.65;;
69047;SDS011;56119;50.118;8.642;2023-09-08T01:44:10;9.85;;;6.55;;
69047;SDS011;56119;50.118;8.642;2023-09-08T01:46:36;9.68;;;7.18;;
69047;SDS011;56119;50.118;8.642;2023-09-08T01:49:03;9.10;;;6.97;;
69047;SDS011;56119;50.118;8.642;2023-09-08T01:51:29;9.50;;;7.38;;
69047;SDS011;56119;50.118;8.642;2023-09-08T01:53:55;11.07;;;7.95;;
69047;SDS011;56119;50.118;8.642;2023-09-08T01:56:21;7.82;;;6.85;;
69047;SDS011;56119;50.118;8.642;2023-09-08T01:58:48;10.23;;;7.63;;
69047;SDS011;56119;50.118;8.642;2023-09-08T02:01:13;11.57;;;7.20;;
69047;SDS011;56119;50.118;8.642;2023-09-08T02:03:39;11.18;;;7.47;;
69047;SDS011;56119;50.118;8.642;2023-09-08T02:06:05;9.55;;;6.57;;
69047;SDS011;56119;50.118;8.642;2023-09-08T02:08:31;9.65;;;7.20;;
69047;SDS011;56119;50.118;8.642;2023-09-08T02:10:57;9.48;;;6.70;;
69047;SDS011;56119;50.118;8.642;2023-09-08T02:13:23;8.80;;;6.97;;
69047;SDS011;56119;50.118;8.642;2023-09-08T02:15:49;10.63;;;7.47;;
69047;SDS011;56119;50.118;8.642;2023-09-08T02:18:16;8.63;;;7.00;;
69047;SDS011;56119;50.118;8.642;2023-09-08T02:20:42;9.82;;;7.15;;
69047;SDS011;56119;50.118;8.642;2023-09-08T02:23:08;9.10;;;6.97;;
69047;SDS011;56119;50.118;8.642;2023-09-08T02:25:34;9.13;;;6.85;;
69047;SDS011;56119;50.118;8.642;2023-09-08T02:27:59;7.82;;;6.00;;
69047;SDS011;56119;50.118;8.642;2023-09-08T02:30:25;8.73;;;7.63;;
69047;SDS011;56119;50.118;8.642;2023-09-08T02:32:51;9.20;;;7.43;;
69047;SDS011;56119;50.118;8.642;2023-09-08T02:35:17;8.55;;;6.80;;
69047;SDS011;56119;50.118;8.642;2023-09-08T02:37:43;9.02;;;7.22;;
69047;SDS011;56119;50.118;8.642;2023-09-08T02:40:09;10.48;;;7.60;;
69047;SDS011;56119;50.118;8.642;2023-09-08T02:42:35;9.10;;;7.15;;
69047;SDS011;56119;50.118;8.642;2023-09-08T02:45:01;8.38;;;7.38;;
69047;SDS011;56119;50.118;8.642;2023-09-08T02:47:27;10.15;;;7.00;;
69047;SDS011;56119;50.118;8.642;2023-09-08T02:49:53;8.00;;;7.05;;
69047;SDS011;56119;50.118;8.642;2023-09-08T02:52:19;9.35;;;6.45;;
69047;SDS011;56119;50.118;8.642;2023-09-08T02:54:45;9.75;;;6.68;;
69047;SDS011;56119;50.118;8.642;2023-09-08T02:57:12;10.13;;;7.82;;
69047;SDS011;56119;50.118;8.642;2023-09-08T02:59:38;9.48;;;7.20;;
69047;SDS011;56119;50.118;8.642;2023-09-08T03:02:04;8.57;;;6.60;;
69047;SDS011;56119;50.118;8.642;2023-09-08T03:04:30;9.18;;;6.78;;
69047;SDS011;56119;50.118;8.642;2023-09-08T03:06:56;7.13;;;6.20;;
69047;SDS011;56119;50.118;8.642;2023-09-08T03:09:22;12.35;;;7.85;;
69047;SDS011;56119;50.118;8.642;2023-09-08T03:11:48;9.48;;;7.05;;
69047;SDS011;56119;50.118;8.642;2023-09-08T03:14:14;11.00;;;7.43;;
69047;SDS011;56119;50.118;8.642;2023-09-08T03:16:40;12.60;;;7.45;;
69047;SDS011;56119;50.118;8.642;2023-09-08T03:19:06;9.75;;;6.82;;
69047;SDS011;56119;50.118;8.642;2023-09-08T03:21:31;9.18;;;7.63;;
69047;SDS011;56119;50.118;8.642;2023-09-08T03:23:57;8.13;;;6.40;;
69047;SDS011;56119;50.118;8.642;2023-09-08T03:26:23;9.77;;;6.95;;
69047;SDS011;56119;50.118;8.642;2023-09-08T03:28:49;12.50;;;7.50;;
69047;SDS011;56119;50.118;8.642;2023-09-08T03:31:15;7.50;;;6.65;;
69047;SDS011;56119;50.118;8.642;2023-09-08T03:33:41;10.77;;;6.55;;
69047;SDS011;56119;50.118;8.642;2023-09-08T03:36:07;6.93;;;6.18;;
69047;SDS011;56119;50.118;8.642;2023-09-08T03:38:33;7.60;;;6.65;;
69047;SDS011;56119;50.118;8.642;2023-09-08T03:41:02;8.63;;;6.72;;
69047;SDS011;56119;50.118;8.642;2023-09-08T03:43:28;9.32;;;6.70;;
69047;SDS011;56119;50.118;8.642;2023-09-08T03:45:54;10.90;;;7.57;;
69047;SDS011;56119;50.118;8.642;2023-09-08T03:48:20;7.65;;;6.85;;
69047;SDS011;56119;50.118;8.642;2023-09-08T03:50:45;8.80;;;6.45;;
69047;SDS011;56119;50.118;8.642;2023-09-08T03:53:12;8.65;;;6.75;;
69047;SDS011;56119;50.118;8.642;2023-09-08T03:55:38;10.15;;;7.28;;
69047;SDS011;56119;50.118;8.642;2023-09-08T03:58:04;7.97;;;6.50;;
69047;SDS011;56119;50.118;8.642;2023-09-08T04:00:30;9.23;;;7.28;;
69047;SDS011;56119;50.118;8.642;2023-09-08T04:02:56;8.07;;;7.03;;
69047;SDS011;56119;50.118;8.642;2023-09-08T04:05:22;11.80;;;7.60;;
69047;SDS011;56119;50.118;8.642;2023-09-08T04:07:48;7.40;;;6.63;;
69047;SDS011;56119;50.118;8.642;2023-09-08T04:10:14;7.65;;;6.55;;
69047;SDS011;56119;50.118;8.642;2023-09-08T04:12:40;9.73;;;7.57;;
69047;SDS011;56119;50.118;8.642;2023-09-08T04:15:06;8.73;;;7.30;;
69047;SDS011;56119;50.118;8.642;2023-09-08T04:17:32;9.65;;;7.22;;
69047;SDS011;56119;50.118;8.642;2023-09-08T04:19:58;8.07;;;6.60;;
69047;SDS011;56119;50.118;8.642;2023-09-08T04:22:24;12.68;;;7.72;;
69047;SDS011;56119;50.118;8.642;2023-09-08T04:24:50;10.52;;;6.93;;
69047;SDS011;56119;50.118;8.642;2023-09-08T04:27:18;11.25;;;8.05;;
69047;SDS011;56119;50.118;8.642;2023-09-08T04:29:44;8.02;;;6.35;;
69047;SDS011;56119;50.118;8.642;2023-09-08T04:32:10;9.55;;;7.10;;
69047;SDS011;56119;50.118;8.642;2023-09-08T04:34:37;9.05;;;6.90;;
69047;SDS011;56119;50.118;8.642;2023-09-08T04:37:03;7.40;;;6.65;;
69047;SDS011;56119;50.118;8.642;2023-09-08T04:39:29;10.15;;;7.80;;
69047;SDS011;56119;50.118;8.642;2023-09-08T04:41:55;9.63;;;6.78;;
69047;SDS011;56119;50.118;8.642;2023-09-08T04:44:21;8.15;;;7.35;;
69047;SDS011;56119;50.118;8.642;2023-09-08T04:46:47;8.75;;;6.95;;
69047;SDS011;56119;50.118;8.642;2023-09-08T04:49:13;9.80;;;7.70;;
69047;SDS011;56119;50.118;8.642;2023-09-08T04:51:39;8.25;;;6.82;;
69047;SDS011;56119;50.118;8.642;2023-09-08T04:54:05;8.60;;;7.20;;
69047;SDS011;56119;50.118;8.642;2023-09-08T04:56:31;10.40;;;7.63;;
69047;SDS011;56119;50.118;8.642;2023-09-08T04:58:57;8.77;;;7.50;;
69047;SDS011;56119;50.118;8.642;2023-09-08T05:01:25;9.48;;;7.45;;
69047;SDS011;56119;50.118;8.642;2023-09-08T05:03:51;16.65;;;10.48;;
69047;SDS011;56119;50.118;8.642;2023-09-08T05:06:17;12.07;;;8.18;;
69047;SDS011;56119;50.118;8.642;2023-09-08T05:08:43;10.38;;;7.00;;
69047;SDS011;56119;50.118;8.642;2023-09-08T05:11:10;9.32;;;7.20;;
69047;SDS011;56119;50.118;8.642;2023-09-08T05:13:35;9.65;;;6.75;;
69047;SDS011;56119;50.118;8.642;2023-09-08T05:16:02;7.97;;;6.25;;
69047;SDS011;56119;50.118;8.642;2023-09-08T05:18:39;10.05;;;6.70;;
69047;SDS011;56119;50.118;8.642;2023-09-08T05:21:06;8.60;;;6.47;;
69047;SDS011;56119;50.118;8.642;2023-09-08T05:23:32;9.00;;;6.63;;
69047;SDS011;56119;50.118;8.642;2023-09-08T05:25:58;8.45;;;6.25;;
69047;SDS011;56119;50.118;8.642;2023-09-08T05:28:24;11.32;;;7.55;;
69047;SDS011;56119;50.118;8.642;2023-09-08T05:30:53;9.32;;;7.07;;
69047;SDS011;56119;50.118;8.642;2023-09-08T05:33:19;9.20;;;6.85;;
69047;SDS011;56119;50.118;8.642;2023-09-08T05:35:45;9.32;;;6.85;;
69047;SDS011;56119;50.118;8.642;2023-09-08T05:38:12;8.38;;;7.15;;
69047;SDS011;56119;50.118;8.642;2023-09-08T05:40:38;10.80;;;6.47;;
69047;SDS011;56119;50.118;8.642;2023-09-08T05:43:04;9.02;;;5.95;;
69047;SDS011;56119;50.118;8.642;2023-09-08T05:45:33;10.15;;;7.43;;
69047;SDS011;56119;50.118;8.642;2023-09-08T05:47:59;9.15;;;6.90;;
69047;SDS011;56119;50.118;8.642;2023-09-08T05:50:25;7.00;;;6.30;;
69047;SDS011;56119;50.118;8.642;2023-09-08T05:52:51;8.98;;;7.38;;
69047;SDS011;56119;50.118;8.642;2023-09-08T05:55:17;8.32;;;6.63;;
69047;SDS011;56119;50.118;8.642;2023-09-08T05:57:43;7.95;;;6.10;;
69047;SDS011;56119;50.118;8.642;2023-09-08T06:00:09;9.05;;;7.13;;
69047;SDS011;56119;50.118;8.642;2023-09-08T06:02:35;13.25;;;7.85;;
69047;SDS011;56119;50.118;8.642;2023-09-08T06:05:02;9.95;;;7.20;;
69047;SDS011;56119;50.118;8.642;2023-09-08T06:07:28;10.15;;;7.03;;
69047;SDS011;56119;50.118;8.642;2023-09-08T06:09:54;11.30;;;7.22;;
69047;SDS011;56119;50.118;8.642;2023-09-08T06:12:21;12.23;;;7.28;;
69047;SDS011;56119;50.118;8.642;2023-09-08T06:14:47;11.38;;;7.63;;
69047;SDS011;56119;50.118;8.642;2023-09-08T06:17:13;10.88;;;7.35;;
69047;SDS011;56119;50.118;8.642;2023-09-08T06:19:39;10.35;;;6.07;;
69047;SDS011;56119;50.118;8.642;2023-09-08T06:22:05;10.95;;;7.30;;
69047;SDS011;56119;50.118;8.642;2023-09-08T06:24:31;10.27;;;6.70;;
69047;SDS011;56119;50.118;8.642;2023-09-08T06:26:57;9.75;;;6.68;;
69047;SDS011;56119;50.118;8.642;2023-09-08T06:29:22;9.65;;;6.28;;
69047;SDS011;56119;50.118;8.642;2023-09-08T06:31:48;11.23;;;7.55;;
69047;SDS011;56119;50.118;8.642;2023-09-08T06:34:14;9.70;;;6.82;;
69047;SDS011;56119;50.118;8.642;2023-09-08T06:36:41;10.82;;;6.90;;
69047;SDS011;56119;50.118;8.642;2023-09-08T06:39:07;11.57;;;7.63;;
69047;SDS011;56119;50.118;8.642;2023-09-08T06:41:33;10.80;;;8.20;;
69047;SDS011;56119;50.118;8.642;2023-09-08T06:43:59;10.63;;;8.70;;
69047;SDS011;56119;50.118;8.642;2023-09-08T06:46:25;10.65;;;7.05;;
69047;SDS011;56119;50.118;8.642;2023-09-08T06:48:51;11.82;;;7.13;;
69047;SDS011;56119;50.118;8.642;2023-09-08T06:51:17;8.52;;;6.85;;
69047;SDS011;56119;50.118;8.642;2023-09-08T06:53:43;9.40;;;6.70;;
69047;SDS011;56119;50.118;8.642;2023-09-08T06:56:09;9.80;;;6.45;;
69047;SDS011;56119;50.118;8.642;2023-09-08T06:58:35;9.23;;;6.70;;
69047;SDS011;56119;50.118;8.642;2023-09-08T07:01:01;8.23;;;6.97;;
69047;SDS011;56119;50.118;8.642;2023-09-08T07:03:27;10.18;;;6.47;;
69047;SDS011;56119;50.118;8.642;2023-09-08T07:05:53;8.57;;;6.63;;
69047;SDS011;56119;50.118;8.642;2023-09-08T07:08:19;9.98;;;6.78;;
69047;SDS011;56119;50.118;8.642;2023-09-08T07:10:45;7.15;;;5.80;;
69047;SDS011;56119;50.118;8.642;2023-09-08T07:13:11;9.93;;;6.60;;
69047;SDS011;56119;50.118;8.642;2023-09-08T07:15:37;8.55;;;7.15;;
69047;SDS011;56119;50.118;8.642;2023-09-08T07:18:03;7.75;;;6.18;;
69047;SDS011;56119;50.118;8.642;2023-09-08T07:20:29;9.32;;;6.45;;
69047;SDS011;56119;50.118;8.642;2023-09-08T07:22:55;8.55;;;6.05;;
69047;SDS011;56119;50.118;8.642;2023-09-08T07:25:21;10.40;;;7.30;;
69047;SDS011;56119;50.118;8.642;2023-09-08T07:27:47;8.40;;;6.20;;
69047;SDS011;56119;50.118;8.642;2023-09-08T07:30:17;7.40;;;6.32;;
69047;SDS011;56119;50.118;8.642;2023-09-08T07:32:43;10.45;;;6.47;;
69047;SDS011;56119;50.118;8.642;2023-09-08T07:35:09;8.43;;;6.90;;
69047;SDS011;56119;50.118;8.642;2023-09-08T07:37:39;7.50;;;5.82;;
69047;SDS011;56119;50.118;8.642;2023-09-08T07:40:05;6.40;;;5.65;;
69047;SDS011;56119;50.118;8.642;2023-09-08T07:42:31;7.88;;;5.78;;
69047;SDS011;56119;50.118;8.642;2023-09-08T07:44:57;9.30;;;6.20;;
69047;SDS011;56119;50.118;8.642;2023-09-08T07:47:23;8.48;;;6.10;;
69047;SDS011;56119;50.118;8.642;2023-09-08T07:49:49;8.43;;;6.05;;
69047;SDS011;56119;50.118;8.642;2023-09-08T07:52:15;9.07;;;6.47;;
69047;SDS011;56119;50.118;8.642;2023-09-08T07:54:41;7.18;;;5.85;;
69047;SDS011;56119;50.118;8.642;2023-09-08T07:57:07;6.70;;;5.75;;
69047;SDS011;56119;50.118;8.642;2023-09-08T07:59:33;6.72;;;5.70;;
69047;SDS011;56119;50.118;8.642;2023-09-08T08:02:00;8.75;;;6.13;;
69047;SDS011;56119;50.118;8.642;2023-09-08T08:04:26;7.47;;;5.20;;
69047;SDS011;56119;50.118;8.642;2023-09-08T08:06:52;7.22;;;5.70;;
69047;SDS011;56119;50.118;8.642;2023-09-08T08:09:18;9.93;;;6.03;;
69047;SDS011;56119;50.118;8.642;2023-09-08T08:11:43;7.53;;;6.30;;
69047;SDS011;56119;50.118;8.642;2023-09-08T08:14:09;8.25;;;6.00;;
69047;SDS011;56119;50.118;8.642;2023-09-08T08:16:35;7.72;;;6.30;;
69047;SDS011;56119;50.118;8.642;2023-09-08T08:19:01;9.70;;;5.43;;
69047;SDS011;56119;50.118;8.642;2023-09-08T08:21:28;8.85;;;5.60;;
69047;SDS011;56119;50.118;8.642;2023-09-08T08:23:55;8.00;;;6.15;;
69047;SDS011;56119;50.118;8.642;2023-09-08T08:26:20;6.95;;;5.88;;
69047;SDS011;56119;50.118;8.642;2023-09-08T08:28:47;12.57;;;6.10;;
69047;SDS011;56119;50.118;8.642;2023-09-08T08:31:13;8.73;;;5.90;;
69047;SDS011;56119;50.118;8.642;2023-09-08T08:33:39;6.50;;;5.90;;
69047;SDS011;56119;50.118;8.642;2023-09-08T08:36:05;16.63;;;10.82;;
69047;SDS011;56119;50.118;8.642;2023-09-08T08:38:32;11.45;;;6.40;;
69047;SDS011;56119;50.118;8.642;2023-09-08T08:41:02;12.52;;;6.25;;
69047;SDS011;56119;50.118;8.642;2023-09-08T08:43:28;9.43;;;6.22;;
69047;SDS011;56119;50.118;8.642;2023-09-08T08:45:54;7.78;;;6.05;;
69047;SDS011;56119;50.118;8.642;2023-09-08T08:48:21;8.43;;;6.43;;
69047;SDS011;56119;50.118;8.642;2023-09-08T08:50:49;6.30;;;5.63;;
69047;SDS011;56119;50.118;8.642;2023-09-08T08:53:17;9.43;;;6.43;;
69047;SDS011;56119;50.118;8.642;2023-09-08T08:55:43;7.63;;;5.53;;
69047;SDS011;56119;50.118;8.642;2023-09-08T08:58:10;9.90;;;6.85;;
69047;SDS011;56119;50.118;8.642;2023-09-08T09:00:36;7.78;;;6.13;;
69047;SDS011;56119;50.118;8.642;2023-09-08T09:03:03;7.03;;;5.70;;
69047;SDS011;56119;50.118;8.642;2023-09-08T09:05:30;7.63;;;5.90;;
69047;SDS011;56119;50.118;8.642;2023-09-08T09:07:57;8.23;;;6.22;;
69047;SDS011;56119;50.118;8.642;2023-09-08T09:10:23;7.35;;;6.03;;
69047;SDS011;56119;50.118;8.642;2023-09-08T09:12:49;7.82;;;5.45;;
69047;SDS011;56119;50.118;8.642;2023-09-08T09:15:15;6.70;;;6.03;;
69047;SDS011;56119;50.118;8.642;2023-09-08T09:17:42;7.78;;;6.10;;
69047;SDS011;56119;50.118;8.642;2023-09-08T09:20:26;6.45;;;5.75;;
69047;SDS011;56119;50.118;8.642;2023-09-08T09:22:52;6.25;;;5.32;;
69047;SDS011;56119;50.118;8.642;2023-09-08T09:25:28;7.65;;;5.10;;
69047;SDS011;56119;50.118;8.642;2023-09-08T09:27:55;8.30;;;6.15;;
69047;SDS011;56119;50.118;8.642;2023-09-08T09:30:22;8.13;;;6.88;;
69047;SDS011;56119;50.118;8.642;2023-09-08T09:32:48;7.10;;;5.78;;
69047;SDS011;56119;50.118;8.642;2023-09-08T09:35:14;7.07;;;5.70;;
69047;SDS011;56119;50.118;8.642;2023-09-08T09:37:41;6.80;;;5.13;;
69047;SDS011;56119;50.118;8.642;2023-09-08T09:40:08;7.22;;;5.35;;
69047;SDS011;56119;50.118;8.642;2023-09-08T09:42:37;6.28;;;5.43;;
69047;SDS011;56119;50.118;8.642;2023-09-08T09:45:05;7.55;;;5.63;;
69047;SDS011;56119;50.118;8.642;2023-09-08T09:47:32;7.95;;;6.28;;
69047;SDS011;56119;50.118;8.642;2023-09-08T09:49:58;7.50;;;5.50;;
69047;SDS011;56119;50.118;8.642;2023-09-08T09:52:24;8.70;;;5.82;;
69047;SDS011;56119;50.118;8.642;2023-09-08T09:54:56;7.13;;;5.57;;
69047;SDS011;56119;50.118;8.642;2023-09-08T09:57:22;7.00;;;5.38;;
69047;SDS011;56119;50.118;8.642;2023-09-08T09:59:49;6.82;;;5.40;;
69047;SDS011;56119;50.118;8.642;2023-09-08T10:02:18;6.80;;;5.25;;
69047;SDS011;56119;50.118;8.642;2023-09-08T10:04:45;8.35;;;5.65;;
69047;SDS011;56119;50.118;8.642;2023-09-08T10:07:13;7.63;;;5.43;;
69047;SDS011;56119;50.118;8.642;2023-09-08T10:09:40;5.47;;;4.90;;
69047;SDS011;56119;50.118;8.642;2023-09-08T10:12:06;7.15;;;4.55;;
69047;SDS011;56119;50.118;8.642;2023-09-08T10:14:35;6.78;;;5.28;;
69047;SDS011;56119;50.118;8.642;2023-09-08T10:17:01;6.43;;;5.22;;
69047;SDS011;56119;50.118;8.642;2023-09-08T10:19:28;7.15;;;4.80;;
69047;SDS011;56119;50.118;8.642;2023-09-08T10:21:55;6.32;;;4.95;;
69047;SDS011;56119;50.118;8.642;2023-09-08T10:24:22;6.15;;;5.55;;
69047;SDS011;56119;50.118;8.642;2023-09-08T10:27:06;7.75;;;5.13;;
69047;SDS011;56119;50.118;8.642;2023-09-08T10:29:33;5.82;;;5.13;;
69047;SDS011;56119;50.118;8.642;2023-09-08T10:32:00;6.70;;;5.45;;
69047;SDS011;56119;50.118;8.642;2023-09-08T10:34:27;7.15;;;4.80;;
69047;SDS011;56119;50.118;8.642;2023-09-08T10:36:53;7.20;;;5.03;;
69047;SDS011;56119;50.118;8.642;2023-09-08T10:39:29;6.88;;;5.45;;
69047;SDS011;56119;50.118;8.642;2023-09-08T10:42:19;6.28;;;5.28;;
69047;SDS011;56119;50.118;8.642;2023-09-08T10:47:23;6.80;;;5.45;;
69047;SDS011;56119;50.118;8.642;2023-09-08T10:49:50;8.55;;;5.05;;
69047;SDS011;56119;50.118;8.642;2023-09-08T10:52:18;6.15;;;5.55;;
69047;SDS011;56119;50.118;8.642;2023-09-08T10:54:53;6.80;;;5.38;;
69047;SDS011;56119;50.118;8.642;2023-09-08T10:57:23;6.80;;;5.43;;
69047;SDS011;56119;50.118;8.642;2023-09-08T11:05:00;7.22;;;5.80;;
69047;SDS011;56119;50.118;8.642;2023-09-08T11:07:27;8.40;;;5.35;;
69047;SDS011;56119;50.118;8.642;2023-09-08T11:09:54;6.55;;;5.07;;
69047;SDS011;56119;50.118;8.642;2023-09-08T11:12:20;6.47;;;5.35;;
69047;SDS011;56119;50.118;8.642;2023-09-08T11:14:48;8.63;;;6.43;;
69047;SDS011;56119;50.118;8.642;2023-09-08T11:17:14;7.15;;;5.53;;
69047;SDS011;56119;50.118;8.642;2023-09-08T11:19:50;7.82;;;5.53;;
69047;SDS011;56119;50.118;8.642;2023-09-08T11:22:16;5.95;;;5.35;;
69047;SDS011;56119;50.118;8.642;2023-09-08T11:24:42;6.90;;;5.88;;
69047;SDS011;56119;50.118;8.642;2023-09-08T11:27:09;6.45;;;5.22;;
69047;SDS011;56119;50.118;8.642;2023-09-08T11:29:35;6.95;;;6.25;;
69047;SDS011;56119;50.118;8.642;2023-09-08T11:32:02;6.72;;;5.70;;
69047;SDS011;56119;50.118;8.642;2023-09-08T11:34:31;8.25;;;5.78;;
69047;SDS011;56119;50.118;8.642;2023-09-08T11:36:57;6.72;;;5.82;;
69047;SDS011;56119;50.118;8.642;2023-09-08T11:39:23;8.13;;;6.30;;
69047;SDS011;56119;50.118;8.642;2023-09-08T11:41:50;5.75;;;5.07;;
69047;SDS011;56119;50.118;8.642;2023-09-08T11:44:17;9.50;;;6.00;;
69047;SDS011;56119;50.118;8.642;2023-09-08T11:46:44;5.60;;;4.90;;
69047;SDS011;56119;50.118;8.642;2023-09-08T11:49:10;6.15;;;5.55;;
69047;SDS011;56119;50.118;8.642;2023-09-08T11:51:36;6.35;;;5.25;;
69047;SDS011;56119;50.118;8.642;2023-09-08T11:54:03;6.55;;;5.30;;
69047;SDS011;56119;50.118;8.642;2023-09-08T11:56:29;5.60;;;4.97;;
69047;SDS011;56119;50.118;8.642;2023-09-08T11:58:56;6.28;;;4.70;;
69047;SDS011;56119;50.118;8.642;2023-09-08T12:01:22;5.78;;;4.93;;
69047;SDS011;56119;50.118;8.642;2023-09-08T12:03:55;7.43;;;5.75;;
69047;SDS011;56119;50.118;8.642;2023-09-08T12:06:23;6.75;;;5.97;;
69047;SDS011;56119;50.118;8.642;2023-09-08T12:08:50;8.18;;;5.93;;
69047;SDS011;56119;50.118;8.642;2023-09-08T12:11:16;7.13;;;4.75;;
69047;SDS011;56119;50.118;8.642;2023-09-08T12:13:42;5.88;;;5.25;;
69047;SDS011;56119;50.118;8.642;2023-09-08T12:16:17;6.68;;;5.53;;
69047;SDS011;56119;50.118;8.642;2023-09-08T12:18:44;7.15;;;5.53;;
69047;SDS011;56119;50.118;8.642;2023-09-08T12:21:10;6.95;;;5.03;;
69047;SDS011;56119;50.118;8.642;2023-09-08T12:23:48;7.13;;;5.40;;
69047;SDS011;56119;50.118;8.642;2023-09-08T12:26:14;6.20;;;5.55;;
69047;SDS011;56119;50.118;8.642;2023-09-08T12:28:41;5.75;;;4.93;;
69047;SDS011;56119;50.118;8.642;2023-09-08T12:31:08;7.57;;;5.25;;
69047;SDS011;56119;50.118;8.642;2023-09-08T12:33:34;6.85;;;5.20;;
69047;SDS011;56119;50.118;8.642;2023-09-08T12:36:09;7.07;;;4.97;;
69047;SDS011;56119;50.118;8.642;2023-09-08T12:38:36;6.72;;;5.43;;
69047;SDS011;56119;50.118;8.642;2023-09-08T12:41:02;7.60;;;5.03;;
69047;SDS011;56119;50.118;8.642;2023-09-08T12:43:31;8.68;;;5.13;;
69047;SDS011;56119;50.118;8.642;2023-09-08T12:45:57;6.93;;;5.35;;
69047;SDS011;56119;50.118;8.642;2023-09-08T12:48:23;5.80;;;5.25;;
69047;SDS011;56119;50.118;8.642;2023-09-08T12:50:49;6.20;;;5.15;;
69047;SDS011;56119;50.118;8.642;2023-09-08T12:53:15;6.30;;;5.43;;
69047;SDS011;56119;50.118;8.642;2023-09-08T12:55:45;5.20;;;4.50;;
69047;SDS011;56119;50.118;8.642;2023-09-08T12:58:11;7.28;;;5.25;;
69047;SDS011;56119;50.118;8.642;2023-09-08T13:00:37;7.88;;;5.05;;
69047;SDS011;56119;50.118;8.642;2023-09-08T13:03:03;5.63;;;4.90;;
69047;SDS011;56119;50.118;8.642;2023-09-08T13:05:29;6.80;;;4.78;;
69047;SDS011;56119;50.118;8.642;2023-09-08T13:07:56;7.43;;;4.75;;
69047;SDS011;56119;50.118;8.642;2023-09-08T13:10:22;6.40;;;5.63;;
69047;SDS011;56119;50.118;8.642;2023-09-08T13:12:48;5.38;;;4.88;;
69047;SDS011;56119;50.118;8.642;2023-09-08T13:15:14;5.63;;;5.03;;
69047;SDS011;56119;50.118;8.642;2023-09-08T13:17:40;7.72;;;4.90;;
69047;SDS011;56119;50.118;8.642;2023-09-08T13:20:07;5.20;;;4.10;;
69047;SDS011;56119;50.118;8.642;2023-09-08T13:22:33;6.53;;;4.35;;
69047;SDS011;56119;50.118;8.642;2023-09-08T13:24:59;6.40;;;4.93;;
69047;SDS011;56119;50.118;8.642;2023-09-08T13:27:25;5.60;;;4.57;;
69047;SDS011;56119;50.118;8.642;2023-09-08T13:29:54;6.20;;;4.57;;
69047;SDS011;56119;50.118;8.642;2023-09-08T13:32:33;6.43;;;4.55;;
69047;SDS011;56119;50.118;8.642;2023-09-08T13:34:59;6.20;;;5.60;;
69047;SDS011;56119;50.118;8.642;2023-09-08T13:37:25;6.20;;;4.65;;
69047;SDS011;56119;50.118;8.642;2023-09-08T13:39:51;8.00;;;4.72;;
69047;SDS011;56119;50.118;8.642;2023-09-08T13:42:17;5.38;;;4.28;;
69047;SDS011;56119;50.118;8.642;2023-09-08T13:44:43;6.95;;;4.68;;
69047;SDS011;56119;50.118;8.642;2023-09-08T13:47:10;5.88;;;4.50;;
69047;SDS011;56119;50.118;8.642;2023-09-08T13:49:36;5.57;;;4.15;;
69047;SDS011;56119;50.118;8.642;2023-09-08T13:52:02;7.00;;;5.20;;
69047;SDS011;56119;50.118;8.642;2023-09-08T13:54:28;5.93;;;5.20;;
69047;SDS011;56119;50.118;8.642;2023-09-08T13:56:58;5.72;;;4.68;;
69047;SDS011;56119;50.118;8.642;2023-09-08T13:59:25;6.28;;;4.70;;
69047;SDS011;56119;50.118;8.642;2023-09-08T14:01:51;5.57;;;4.53;;
69047;SDS011;56119;50.118;8.642;2023-09-08T14:04:18;7.93;;;4.85;;
69047;SDS011;56119;50.118;8.642;2023-09-08T14:06:44;6.57;;;5.10;;
69047;SDS011;56119;50.118;8.642;2023-09-08T14:09:10;5.85;;;4.28;;
69047;SDS011;56119;50.118;8.642;2023-09-08T14:11:36;6.65;;;4.95;;
69047;SDS011;56119;50.118;8.642;2023-09-08T14:14:02;7.15;;;5.20;;
69047;SDS011;56119;50.118;8.642;2023-09-08T14:16:28;7.93;;;4.20;;
69047;SDS011;56119;50.118;8.642;2023-09-08T14:18:54;4.97;;;4.47;;
69047;SDS011;56119;50.118;8.642;2023-09-08T14:21:20;5.10;;;4.20;;
69047;SDS011;56119;50.118;8.642;2023-09-08T14:23:46;5.40;;;4.13;;
69047;SDS011;56119;50.118;8.642;2023-09-08T14:26:12;5.40;;;4.60;;
69047;SDS011;56119;50.118;8.642;2023-09-08T14:28:38;9.10;;;5.10;;
69047;SDS011;56119;50.118;8.642;2023-09-08T14:31:04;5.97;;;4.60;;
69047;SDS011;56119;50.118;8.642;2023-09-08T14:33:31;6.40;;;4.80;;
69047;SDS011;56119;50.118;8.642;2023-09-08T14:35:57;5.47;;;4.30;;
69047;SDS011;56119;50.118;8.642;2023-09-08T14:38:23;6.55;;;4.32;;
69047;SDS011;56119;50.118;8.642;2023-09-08T14:43:21;6.63;;;4.18;;
69047;SDS011;56119;50.118;8.642;2023-09-08T14:45:47;5.43;;;4.03;;
69047;SDS011;56119;50.118;8.642;2023-09-08T14:48:13;6.30;;;4.78;;
69047;SDS011;56119;50.118;8.642;2023-09-08T14:50:39;5.13;;;4.55;;
69047;SDS011;56119;50.118;8.642;2023-09-08T14:53:05;6.80;;;4.90;;
69047;SDS011;56119;50.118;8.642;2023-09-08T14:55:31;7.15;;;4.85;;